createdAt,value
2019-04-06T00:00:36.716Z,18.17
2019-04-06T00:03:05.313Z,19.40
2019-04-06T00:05:34.000Z,16.35
2019-04-06T00:08:02.544Z,15.30
2019-04-06T00:10:31.173Z,16.77
2019-04-06T00:12:59.684Z,16.85
2019-04-06T00:15:28.271Z,17.07
2019-04-06T00:17:56.755Z,16.40
2019-04-06T00:20:25.315Z,17.55
2019-04-06T00:22:53.839Z,17.25
2019-04-06T00:25:22.388Z,17.10
2019-04-06T00:27:50.918Z,16.35
2019-04-06T00:30:19.702Z,17.48
2019-04-06T00:32:49.874Z,18.52
2019-04-06T00:35:18.415Z,15.65
2019-04-06T00:37:47.008Z,17.30
2019-04-06T00:40:15.602Z,17.50
2019-04-06T00:42:44.154Z,18.12
2019-04-06T00:45:12.827Z,15.72
2019-04-06T00:47:41.387Z,17.07
2019-04-06T00:50:10.047Z,16.85
2019-04-06T00:52:38.594Z,16.27
2019-04-06T00:55:07.263Z,16.77
2019-04-06T00:57:35.814Z,16.62
2019-04-06T01:00:06.811Z,17.27
2019-04-06T01:02:35.362Z,15.83
2019-04-06T01:05:05.698Z,15.90
2019-04-06T01:07:34.174Z,17.65
2019-04-06T01:10:03.049Z,14.13
2019-04-06T01:12:31.719Z,15.45
2019-04-06T01:15:00.255Z,14.95
2019-04-06T01:17:28.807Z,16.02
2019-04-06T01:19:57.337Z,15.58
2019-04-06T01:22:25.884Z,16.27
2019-04-06T01:24:54.486Z,14.45
2019-04-06T01:27:22.955Z,15.20
2019-04-06T01:29:51.486Z,17.87
2019-04-06T01:32:20.178Z,14.23
2019-04-06T01:34:48.714Z,15.08
2019-04-06T01:37:17.263Z,16.30
2019-04-06T01:39:45.795Z,17.87
2019-04-06T01:42:14.370Z,16.82
2019-04-06T01:44:42.872Z,16.20
2019-04-06T01:47:11.437Z,15.48
2019-04-06T01:49:40.020Z,17.77
2019-04-06T01:52:08.574Z,17.27
2019-04-06T01:54:37.103Z,15.83
2019-04-06T01:57:05.790Z,16.87
2019-04-06T01:59:34.387Z,16.25
2019-04-06T02:02:13.584Z,14.78
2019-04-06T02:04:42.050Z,15.85
2019-04-06T02:07:10.595Z,15.13
2019-04-06T02:09:39.116Z,15.30
2019-04-06T02:12:07.666Z,15.72
2019-04-06T02:14:36.195Z,16.90
2019-04-06T02:17:05.587Z,14.40
2019-04-06T02:19:34.233Z,15.68
2019-04-06T02:22:02.769Z,17.52
2019-04-06T02:24:31.296Z,18.30
2019-04-06T02:26:59.843Z,15.98
2019-04-06T02:29:28.296Z,15.25
2019-04-06T02:32:14.686Z,16.17
2019-04-06T02:34:47.785Z,14.95
2019-04-06T02:37:20.713Z,14.70
2019-04-06T02:39:50.887Z,14.90
2019-04-06T02:42:21.143Z,15.32
2019-04-06T02:44:49.596Z,14.55
2019-04-06T02:47:18.149Z,15.25
2019-04-06T02:49:46.753Z,16.95
2019-04-06T02:52:15.299Z,15.95
2019-04-06T02:54:43.932Z,16.40
2019-04-06T02:57:12.466Z,15.48
2019-04-06T02:59:40.928Z,16.17
2019-04-06T03:02:09.482Z,14.40
2019-04-06T03:04:38.079Z,14.47
2019-04-06T03:07:06.638Z,16.90
2019-04-06T03:09:35.215Z,15.50
2019-04-06T03:12:03.858Z,14.95
2019-04-06T03:14:32.558Z,16.32
2019-04-06T03:17:01.090Z,15.05
2019-04-06T03:19:29.692Z,14.43
2019-04-06T03:21:58.245Z,14.25
2019-04-06T03:24:26.905Z,14.40
2019-04-06T03:27:02.286Z,13.88
2019-04-06T03:29:27.267Z,14.75
2019-04-06T03:31:55.900Z,13.30
2019-04-06T03:34:24.489Z,15.15
2019-04-06T03:36:53.042Z,15.98
2019-04-06T03:39:21.578Z,16.30
2019-04-06T03:41:50.124Z,15.35
2019-04-06T03:44:18.779Z,14.80
2019-04-06T03:46:47.819Z,13.90
2019-04-06T03:49:16.352Z,15.72
2019-04-06T03:51:44.903Z,17.37
2019-04-06T03:54:13.434Z,15.50
2019-04-06T03:56:42.049Z,14.70
2019-04-06T03:59:10.757Z,15.68
2019-04-06T04:01:39.259Z,14.45
2019-04-06T04:04:07.819Z,15.90
2019-04-06T04:06:36.434Z,13.98
2019-04-06T04:09:06.208Z,13.13
2019-04-06T04:11:34.957Z,16.20
2019-04-06T04:14:03.636Z,14.98
2019-04-06T04:16:32.168Z,14.75
2019-04-06T04:19:00.736Z,13.45
2019-04-06T04:21:29.323Z,14.00
2019-04-06T04:23:57.828Z,14.93
2019-04-06T04:26:26.361Z,14.80
2019-04-06T04:28:54.986Z,14.25
2019-04-06T04:31:23.526Z,12.10
2019-04-06T04:33:52.071Z,14.20
2019-04-06T04:36:20.619Z,14.33
2019-04-06T04:38:49.253Z,14.00
2019-04-06T04:41:17.714Z,14.60
2019-04-06T04:43:46.382Z,16.48
2019-04-06T04:46:15.129Z,13.48
2019-04-06T04:48:43.723Z,14.07
2019-04-06T04:51:12.738Z,13.05
2019-04-06T04:53:41.286Z,14.23
2019-04-06T04:56:09.822Z,14.50
2019-04-06T04:58:38.379Z,14.68
2019-04-06T05:01:06.915Z,17.30
2019-04-06T05:03:35.470Z,16.95
2019-04-06T05:06:04.545Z,16.85
2019-04-06T05:08:33.098Z,16.37
2019-04-06T05:11:01.571Z,13.75
2019-04-06T05:13:30.110Z,13.53
2019-04-06T05:16:12.149Z,14.03
2019-04-06T05:18:41.989Z,15.65
2019-04-06T05:21:11.727Z,14.05
2019-04-06T05:23:40.256Z,13.55
2019-04-06T05:26:09.149Z,13.93
2019-04-06T05:28:37.680Z,13.10
2019-04-06T05:31:06.307Z,13.75
2019-04-06T05:33:34.982Z,13.78
2019-04-06T05:36:03.678Z,14.05
2019-04-06T05:38:32.212Z,15.95
2019-04-06T05:41:00.762Z,14.93
2019-04-06T05:43:29.303Z,15.55
2019-04-06T05:45:58.027Z,15.55
2019-04-06T05:48:26.734Z,16.32
2019-04-06T05:50:55.227Z,16.52
2019-04-06T05:53:23.743Z,16.67
2019-04-06T05:55:52.425Z,14.90
2019-04-06T05:58:21.027Z,15.23
2019-04-06T06:00:49.559Z,14.43
2019-04-06T06:03:18.112Z,15.03
2019-04-06T06:05:46.643Z,16.37
2019-04-06T06:08:15.195Z,16.82
2019-04-06T06:10:43.726Z,19.30
2019-04-06T06:13:12.284Z,17.12
2019-04-06T06:15:40.897Z,18.27
2019-04-06T06:18:09.442Z,17.92
2019-04-06T06:20:37.971Z,19.60
2019-04-06T06:23:06.527Z,17.50
2019-04-06T06:25:35.378Z,15.80
2019-04-06T06:28:13.719Z,16.95
2019-04-06T06:30:34.130Z,16.15
2019-04-06T06:33:02.641Z,17.25
2019-04-06T06:35:31.232Z,15.72
2019-04-06T06:37:59.782Z,16.05
2019-04-06T06:40:28.238Z,15.65
2019-04-06T06:42:56.790Z,15.10
2019-04-06T06:45:25.322Z,15.10
2019-04-06T06:47:53.873Z,15.55
2019-04-06T06:50:22.399Z,16.15
2019-04-06T06:52:50.948Z,14.73
2019-04-06T06:55:19.543Z,14.73
2019-04-06T06:57:48.014Z,17.82
2019-04-06T07:00:16.975Z,15.83
2019-04-06T07:02:45.534Z,14.23
2019-04-06T07:05:14.303Z,14.87
2019-04-06T07:07:43.325Z,15.43
2019-04-06T07:10:12.654Z,16.20
2019-04-06T07:12:41.344Z,16.15
2019-04-06T07:15:10.261Z,14.65
2019-04-06T07:17:38.904Z,16.12
2019-04-06T07:20:08.186Z,15.72
2019-04-06T07:22:36.784Z,15.63
2019-04-06T07:25:06.614Z,15.55
2019-04-06T07:27:35.407Z,16.70
2019-04-06T07:30:06.781Z,16.23
2019-04-06T07:32:35.328Z,17.93
2019-04-06T07:35:05.104Z,16.17
2019-04-06T07:37:33.650Z,15.50
2019-04-06T07:40:02.255Z,17.70
2019-04-06T07:42:30.810Z,19.13
2019-04-06T07:44:59.338Z,18.37
2019-04-06T07:47:27.899Z,19.00
2019-04-06T07:49:56.515Z,19.07
2019-04-06T07:52:25.713Z,18.67
2019-04-06T07:54:55.172Z,20.07
2019-04-06T07:57:24.268Z,20.47
2019-04-06T07:59:52.798Z,20.60
2019-04-06T08:02:21.357Z,20.90
2019-04-06T08:04:49.958Z,24.50
2019-04-06T08:07:18.524Z,22.17
2019-04-06T08:09:47.058Z,21.67
2019-04-06T08:12:15.547Z,22.67
2019-04-06T08:14:44.079Z,22.60
2019-04-06T08:17:12.630Z,23.23
2019-04-06T08:19:41.173Z,22.53
2019-04-06T08:22:09.728Z,21.67
2019-04-06T08:24:38.264Z,22.70
2019-04-06T08:27:06.806Z,20.67
2019-04-06T08:29:35.359Z,22.50
2019-04-06T08:32:03.966Z,20.53
2019-04-06T08:34:32.455Z,21.27
2019-04-06T08:37:01.158Z,21.60
2019-04-06T08:39:30.034Z,23.07
2019-04-06T08:41:58.706Z,22.43
2019-04-06T08:44:27.586Z,22.10
2019-04-06T08:46:56.123Z,23.87
2019-04-06T08:49:24.620Z,21.57
2019-04-06T08:51:53.152Z,20.47
2019-04-06T08:54:21.919Z,21.73
2019-04-06T08:56:50.720Z,19.43
2019-04-06T08:59:19.301Z,23.07
2019-04-06T09:01:47.839Z,20.23
2019-04-06T09:04:16.649Z,21.70
2019-04-06T09:06:45.127Z,21.67
2019-04-06T09:09:13.754Z,22.00
2019-04-06T09:11:42.382Z,24.80
2019-04-06T09:14:30.495Z,20.30
2019-04-06T09:16:59.252Z,21.80
2019-04-06T09:19:27.867Z,19.37
2019-04-06T09:21:56.472Z,22.27
2019-04-06T09:24:25.027Z,23.67
2019-04-06T09:26:53.726Z,21.90
2019-04-06T09:29:24.352Z,23.03
2019-04-06T09:31:52.425Z,21.67
2019-04-06T09:34:21.015Z,21.77
2019-04-06T09:36:49.591Z,22.13
2019-04-06T09:39:18.220Z,19.30
2019-04-06T09:41:46.835Z,21.43
2019-04-06T09:44:33.490Z,21.33
2019-04-06T09:47:03.593Z,20.63
2019-04-06T09:49:45.741Z,21.27
2019-04-06T09:52:15.921Z,19.33
2019-04-06T09:54:46.165Z,20.30
2019-04-06T09:57:22.191Z,20.97
2019-04-06T09:59:55.292Z,18.27
2019-04-06T10:02:34.751Z,17.60
2019-04-06T10:05:12.086Z,19.80
2019-04-06T10:07:42.403Z,21.60
2019-04-06T10:10:19.519Z,21.60
2019-04-06T10:12:58.929Z,21.63
2019-04-06T10:15:44.655Z,19.23
2019-04-06T10:18:20.598Z,19.57
2019-04-06T10:21:03.024Z,19.27
2019-04-06T10:23:42.769Z,19.20
2019-04-06T10:26:29.156Z,18.93
2019-04-06T10:28:59.326Z,20.67
2019-04-06T10:31:41.349Z,16.40
2019-04-06T10:34:27.806Z,17.03
2019-04-06T10:36:58.003Z,18.30
2019-04-06T10:39:30.828Z,17.20
2019-04-06T10:42:03.995Z,16.43
2019-04-06T10:44:46.496Z,15.53
2019-04-06T10:47:25.503Z,17.17
2019-04-06T10:50:04.736Z,16.37
2019-04-06T10:52:34.933Z,16.13
2019-04-06T10:55:21.363Z,17.03
2019-04-06T10:57:54.147Z,17.43
2019-04-06T11:00:24.399Z,18.00
2019-04-06T11:02:54.509Z,15.40
2019-04-06T11:05:27.547Z,17.10
2019-04-06T11:08:14.024Z,16.50
2019-04-06T11:10:44.219Z,17.63
2019-04-06T11:13:16.833Z,17.90
2019-04-06T11:16:03.290Z,18.73
2019-04-06T11:18:45.742Z,16.57
2019-04-06T11:21:27.887Z,13.30
2019-04-06T11:24:14.427Z,13.17
2019-04-06T11:26:47.625Z,11.40
2019-04-06T11:29:17.939Z,11.23
2019-04-06T11:31:57.064Z,10.60
2019-04-06T11:34:27.253Z,10.27
2019-04-06T11:37:12.544Z,10.00
2019-04-06T11:39:42.732Z,12.37
2019-04-06T11:42:12.938Z,10.80
2019-04-06T11:44:55.024Z,10.27
2019-04-06T11:47:41.318Z,10.40
2019-04-06T11:50:14.306Z,11.87
2019-04-06T11:52:59.419Z,12.93
2019-04-06T11:55:32.034Z,10.33
2019-04-06T11:58:07.931Z,13.00
2019-04-06T12:00:47.097Z,11.70
2019-04-06T12:03:23.182Z,11.57
2019-04-06T12:05:59.210Z,10.43
2019-04-06T12:08:29.402Z,9.57
2019-04-06T12:11:11.386Z,9.70
2019-04-06T12:13:41.512Z,8.60
2019-04-06T12:16:20.498Z,11.73
2019-04-06T12:18:50.766Z,10.50
2019-04-06T12:21:24.495Z,11.27
2019-04-06T12:24:09.916Z,12.87
2019-04-06T12:26:45.645Z,13.23
2019-04-06T12:29:30.822Z,13.67
2019-04-06T12:32:17.301Z,11.70
2019-04-06T12:34:56.458Z,8.50
2019-04-06T12:37:38.454Z,9.20
2019-04-06T12:40:09.396Z,11.80
2019-04-06T12:42:56.003Z,11.40
2019-04-06T12:45:38.031Z,9.53
2019-04-06T12:48:17.321Z,9.90
2019-04-06T12:51:05.965Z,8.90
2019-04-06T12:53:42.110Z,10.47
2019-04-06T12:56:24.464Z,11.50
2019-04-06T12:58:54.644Z,12.30
2019-04-06T13:01:41.489Z,9.90
2019-04-06T13:04:11.676Z,12.63
2019-04-06T13:06:56.961Z,13.30
2019-04-06T13:09:27.339Z,13.47
2019-04-06T13:12:03.272Z,13.40
2019-04-06T13:14:36.266Z,16.90
2019-04-06T13:17:06.499Z,15.67
2019-04-06T13:19:42.867Z,14.90
2019-04-06T13:22:25.163Z,13.43
2019-04-06T13:25:11.353Z,12.43
2019-04-06T13:27:56.543Z,14.20
2019-04-06T13:30:26.723Z,13.97
2019-04-06T13:32:57.703Z,14.93
2019-04-06T13:35:31.469Z,13.93
2019-04-06T13:38:04.868Z,12.00
2019-04-06T13:40:37.835Z,11.40
2019-04-06T13:43:22.998Z,14.17
2019-04-06T13:45:55.820Z,12.60
2019-04-06T13:48:44.547Z,15.30
2019-04-06T13:51:15.106Z,15.10
2019-04-06T13:54:01.803Z,12.70
2019-04-06T13:56:47.916Z,12.83
2019-04-06T13:59:18.133Z,11.30
2019-04-06T14:01:48.297Z,11.87
2019-04-06T14:04:21.458Z,10.40
2019-04-06T14:07:00.390Z,12.90
2019-04-06T14:09:36.523Z,11.37
2019-04-06T14:12:18.876Z,13.63
2019-04-06T14:14:49.263Z,12.57
2019-04-06T14:17:22.519Z,12.20
2019-04-06T14:19:52.790Z,11.43
2019-04-06T14:22:28.620Z,12.30
2019-04-06T14:24:58.799Z,13.63
2019-04-06T14:27:32.609Z,11.47
2019-04-06T14:30:02.832Z,12.00
2019-04-06T14:32:35.517Z,11.73
2019-04-06T14:35:09.764Z,13.60
2019-04-06T14:37:40.326Z,11.93
2019-04-06T14:40:10.594Z,13.80
2019-04-06T14:42:46.967Z,13.90
2019-04-06T14:45:19.951Z,11.30
2019-04-06T14:47:50.418Z,12.13
2019-04-06T14:50:35.972Z,13.07
2019-04-06T14:53:06.154Z,12.57
2019-04-06T14:55:45.173Z,13.13
2019-04-06T14:58:32.665Z,13.43
2019-04-06T15:01:06.246Z,12.63
2019-04-06T15:03:36.706Z,10.90
2019-04-06T15:06:16.280Z,12.33
2019-04-06T15:09:03.132Z,12.80
2019-04-06T15:11:36.375Z,12.10
2019-04-06T15:14:09.616Z,12.07
2019-04-06T15:16:54.886Z,12.70
2019-04-06T15:19:28.112Z,14.57
2019-04-06T15:22:13.969Z,13.30
2019-04-06T15:24:46.728Z,13.20
2019-04-06T15:27:16.907Z,13.37
2019-04-06T15:29:56.375Z,12.83
2019-04-06T15:32:30.029Z,12.00
2019-04-06T15:35:15.588Z,14.47
2019-04-06T15:37:45.765Z,12.07
2019-04-06T15:40:18.950Z,11.60
2019-04-06T15:42:49.128Z,13.30
2019-04-06T15:45:22.327Z,13.00
2019-04-06T15:48:36.954Z,11.83
2019-04-06T15:51:00.347Z,9.97
2019-04-06T15:53:39.850Z,10.90
2019-04-06T15:56:13.138Z,11.60
2019-04-06T15:59:01.249Z,11.63
2019-04-06T16:01:31.811Z,10.80
2019-04-06T16:04:04.778Z,9.80
2019-04-06T16:06:43.812Z,9.00
2019-04-06T16:09:20.086Z,9.90
2019-04-06T16:12:02.533Z,9.00
2019-04-06T16:14:51.214Z,7.80
2019-04-06T16:17:24.317Z,8.53
2019-04-06T16:20:10.464Z,8.70
2019-04-06T16:22:40.668Z,8.47
2019-04-06T16:25:17.124Z,9.13
2019-04-06T16:27:56.343Z,8.27
2019-04-06T16:30:35.715Z,7.70
2019-04-06T16:33:20.978Z,7.70
2019-04-06T16:35:51.156Z,7.57
2019-04-06T16:38:39.926Z,7.93
2019-04-06T16:41:28.664Z,8.60
2019-04-06T16:43:58.795Z,8.40
2019-04-06T16:46:37.537Z,7.30
2019-04-06T16:49:10.836Z,9.23
2019-04-06T16:51:41.071Z,8.03
2019-04-06T16:54:29.295Z,7.77
2019-04-06T16:57:11.807Z,7.53
2019-04-06T16:59:42.076Z,8.80
2019-04-06T17:02:22.171Z,8.03
2019-04-06T17:04:47.011Z,7.70
2019-04-06T17:07:29.151Z,8.27
2019-04-06T17:10:08.191Z,7.90
2019-04-06T17:12:38.363Z,8.77
2019-04-06T17:15:18.254Z,7.80
2019-04-06T17:17:51.279Z,8.37
2019-04-06T17:20:39.375Z,7.80
2019-04-06T17:23:09.585Z,8.00
2019-04-06T17:25:39.742Z,7.77
2019-04-06T17:28:18.490Z,7.23
2019-04-06T17:31:00.472Z,7.40
2019-04-06T17:33:36.811Z,7.30
2019-04-06T17:36:23.532Z,6.47
2019-04-06T17:39:02.764Z,6.70
2019-04-06T17:41:49.296Z,5.53
2019-04-06T17:44:37.787Z,6.50
2019-04-06T17:47:07.897Z,6.47
2019-04-06T17:49:40.784Z,6.70
2019-04-06T17:52:20.321Z,6.70
2019-04-06T17:54:51.375Z,6.57
2019-04-06T17:57:30.634Z,7.60
2019-04-06T18:00:06.767Z,6.13
2019-04-06T18:02:48.703Z,6.50
2019-04-06T18:05:33.684Z,6.00
2019-04-06T18:08:13.122Z,6.10
2019-04-06T18:10:43.654Z,6.37
2019-04-06T18:13:13.843Z,5.70
2019-04-06T18:15:42.749Z,6.10
2019-04-06T18:18:11.716Z,5.57
2019-04-06T18:20:40.426Z,5.40
2019-04-06T18:23:09.016Z,5.07
2019-04-06T18:25:38.158Z,5.80
2019-04-06T18:28:07.098Z,5.50
2019-04-06T18:30:36.071Z,5.37
2019-04-06T18:33:09.434Z,5.47
2019-04-06T18:35:38.336Z,5.40
2019-04-06T18:38:09.076Z,5.07
2019-04-06T18:40:38.101Z,4.20
2019-04-06T18:43:06.629Z,5.00
2019-04-06T18:45:35.601Z,4.90
2019-04-06T18:48:04.335Z,4.80
2019-04-06T18:50:36.078Z,5.37
2019-04-06T18:53:03.426Z,4.70
2019-04-06T18:55:32.459Z,4.83
2019-04-06T18:58:09.640Z,4.90
2019-04-06T19:00:31.347Z,4.93
2019-04-06T19:03:11.180Z,4.70
2019-04-06T19:05:30.246Z,4.87
2019-04-06T19:07:58.703Z,4.50
2019-04-06T19:10:27.171Z,5.20
2019-04-06T19:12:55.699Z,4.90
2019-04-06T19:15:24.254Z,5.20
2019-04-06T19:17:53.301Z,4.77
2019-04-06T19:20:21.900Z,4.00
2019-04-06T19:22:51.131Z,5.10
2019-04-06T19:25:19.680Z,5.13
2019-04-06T19:27:48.687Z,4.70
2019-04-06T19:30:18.412Z,5.83
2019-04-06T19:32:47.259Z,4.13
2019-04-06T19:35:16.923Z,4.27
2019-04-06T19:37:48.074Z,4.80
2019-04-06T19:40:18.255Z,4.47
2019-04-06T19:42:46.790Z,5.13
2019-04-06T19:45:15.818Z,4.83
2019-04-06T19:47:44.402Z,4.97
2019-04-06T19:50:13.492Z,5.27
2019-04-06T19:52:42.019Z,4.70
2019-04-06T19:55:11.103Z,5.87
2019-04-06T19:57:39.712Z,5.00
2019-04-06T20:00:09.147Z,5.50
2019-04-06T20:02:38.016Z,5.10
2019-04-06T20:05:08.388Z,5.37
2019-04-06T20:07:38.096Z,5.20
2019-04-06T20:10:07.358Z,5.80
2019-04-06T20:12:36.157Z,4.60
2019-04-06T20:15:06.534Z,5.23
2019-04-06T20:17:35.506Z,4.20
2019-04-06T20:20:08.479Z,5.07
2019-04-06T20:22:37.026Z,4.63
2019-04-06T20:25:07.213Z,4.20
2019-04-06T20:27:35.738Z,5.40
2019-04-06T20:30:10.093Z,5.40
2019-04-06T20:32:39.105Z,5.40
2019-04-06T20:35:09.276Z,4.97
2019-04-06T20:37:38.563Z,5.47
2019-04-06T20:40:08.680Z,5.20
2019-04-06T20:42:37.307Z,5.70
2019-04-06T20:45:09.415Z,4.23
2019-04-06T20:47:38.547Z,5.50
2019-04-06T20:50:08.334Z,6.20
2019-04-06T20:52:37.087Z,5.73
2019-04-06T20:55:07.943Z,5.60
2019-04-06T20:57:36.604Z,5.33
2019-04-06T21:00:08.982Z,5.83
2019-04-06T21:02:37.651Z,6.07
2019-04-06T21:05:08.022Z,5.87
2019-04-06T21:07:36.998Z,5.43
2019-04-06T21:10:08.994Z,5.50
2019-04-06T21:12:37.604Z,5.80
2019-04-06T21:15:17.859Z,5.73
2019-04-06T21:17:38.639Z,5.47
2019-04-06T21:20:08.036Z,6.57
2019-04-06T21:22:36.688Z,6.30
2019-04-06T21:25:06.994Z,5.57
2019-04-06T21:27:36.107Z,5.30
2019-04-06T21:30:10.939Z,5.30
2019-04-06T21:32:39.625Z,5.03
2019-04-06T21:35:08.802Z,5.67
2019-04-06T21:37:37.864Z,5.50
2019-04-06T21:40:07.209Z,5.80
2019-04-06T21:42:36.485Z,5.80
2019-04-06T21:45:08.360Z,6.30
2019-04-06T21:47:37.461Z,6.40
2019-04-06T21:50:08.093Z,5.37
2019-04-06T21:52:37.294Z,4.93
2019-04-06T21:55:08.919Z,5.97
2019-04-06T21:57:37.737Z,5.90
2019-04-06T22:00:08.476Z,6.87
2019-04-06T22:02:38.004Z,6.13
2019-04-06T22:05:08.308Z,6.50
2019-04-06T22:07:47.126Z,6.30
2019-04-06T22:10:08.270Z,6.73
2019-04-06T22:12:36.825Z,5.53
2019-04-06T22:15:06.564Z,5.73
2019-04-06T22:17:35.916Z,6.03
2019-04-06T22:20:05.253Z,6.07
2019-04-06T22:22:33.796Z,6.53
2019-04-06T22:25:02.375Z,5.40
2019-04-06T22:27:31.709Z,7.20
2019-04-06T22:30:00.338Z,5.17
2019-04-06T22:32:28.970Z,5.30
2019-04-06T22:34:57.938Z,5.67
2019-04-06T22:37:26.547Z,6.20
2019-04-06T22:39:55.570Z,5.80
2019-04-06T22:42:24.103Z,7.58
2019-04-06T22:44:52.580Z,5.70
2019-04-06T22:47:21.119Z,6.75
2019-04-06T22:49:49.873Z,5.40
2019-04-06T22:52:18.540Z,6.00
2019-04-06T22:54:46.995Z,6.55
2019-04-06T22:57:15.983Z,6.10
2019-04-06T22:59:44.740Z,5.85
2019-04-06T23:02:13.391Z,5.92
2019-04-06T23:04:50.431Z,6.92
2019-04-06T23:07:18.192Z,6.92
2019-04-06T23:09:46.724Z,5.33
2019-04-06T23:12:15.563Z,6.58
2019-04-06T23:14:44.338Z,5.97
2019-04-06T23:17:13.365Z,5.15
2019-04-06T23:19:42.012Z,6.55
2019-04-06T23:22:10.535Z,5.92
2019-04-06T23:24:39.719Z,6.00
2019-04-06T23:27:08.518Z,5.47
2019-04-06T23:29:37.171Z,7.12
2019-04-06T23:32:05.686Z,6.72
2019-04-06T23:34:34.297Z,7.10
2019-04-06T23:37:02.755Z,5.70
2019-04-06T23:39:31.389Z,7.25
2019-04-06T23:42:00.160Z,6.33
2019-04-06T23:44:29.363Z,5.70
2019-04-06T23:46:57.987Z,6.10
2019-04-06T23:49:27.049Z,6.45
2019-04-06T23:51:56.141Z,7.47
2019-04-06T23:54:25.243Z,8.18
2019-04-06T23:56:54.042Z,6.10
2019-04-06T23:59:23.287Z,8.83
